Flight Track Log - Related Links

Times and Time Zones

All times are in EDT time to prevent confusion due to time zone crossing. See the SWA920 flight status page for this flight to view local times or setup timezone preferences in your user account.

Time Position Orientation Groundspeed Altitude Reporting Facility
EDT Latitude Longitude Course Direction KTS MPH feet Rate Location/Type
Fri 12:47:33 PM 42.9167 -71.4167 255° West 149 171 1,200  Level KA90
Fri 12:49:03 PM 42.9000 -71.5000 255° West 232 267 5,000 2,661 Climbing KA90
Fri 12:49:28 PM 42.9158 -71.5414 298° West 240 276 6,300 3,318 Climbing Boston Center
Fri 12:50:28 PM 42.9517 -71.6033 308° West 245 282 9,700 2,800 Climbing Boston Center
Fri 12:51:28 PM 42.9692 -71.7108 283° West 242 278 11,900 2,900 Climbing Boston Center
Fri 12:52:28 PM 42.9761 -71.8186 275° West 300 345 15,500 3,400 Climbing Boston Center
Fri 12:53:28 PM 42.9850 -71.9547 275° West 330 380 18,700 2,800 Climbing Boston Center
Fri 12:54:28 PM 42.9917 -72.0739 274° West 336 387 21,100 3,000 Climbing Boston Center
Fri 12:55:28 PM 43.0006 -72.2272 275° West 367 422 24,700 2,900 Climbing Boston Center
Fri 12:56:28 PM 43.0131 -72.3661 277° West 367 422 26,900 2,150 Climbing Boston Center
Fri 12:57:28 PM 43.0236 -72.5111 276° West 374 430 29,000 2,050 Climbing Boston Center
Fri 12:58:28 PM 43.0233 -72.6444 270° West 386 444 31,000 2,100 Climbing Boston Center
Fri 12:59:28 PM 43.0314 -72.7922 274° West 391 450 33,200 1,750 Climbing Boston Center
Fri 01:00:28 PM 43.0411 -72.9458 275° West 391 450 34,500 1,300 Climbing Boston Center
Fri 01:01:28 PM 43.0508 -73.1192 274° West 412 474 35,800 1,300 Climbing Boston Center
Fri 01:02:28 PM 43.0561 -73.2442 273° West 417 480 37,100 1,550 Climbing Boston Center
Fri 01:03:28 PM 43.0608 -73.4261 272° West 417 480 38,900 1,450 Climbing Boston Center
Fri 01:04:28 PM 43.0678 -73.5769 274° West 411 473 40,000 550 Climbing Boston Center
Fri 01:05:28 PM 43.0747 -73.7306 274° West 405 466 40,000  Level Boston Center
Fri 01:06:28 PM 43.0831 -73.8842 274° West 405 466 40,000  Level Boston Center
Fri 01:07:28 PM 43.0894 -74.0378 273° West 405 466 40,000  Level Boston Center
Fri 01:08:28 PM 43.0975 -74.1944 274° West 405 466 40,000  Level Boston Center
Fri 01:09:28 PM 43.1036 -74.3453 273° West 405 466 40,000  Level Boston Center
Fri 01:10:28 PM 43.1092 -74.4964 273° West 405 466 40,000  Level Boston Center
Fri 01:11:28 PM 43.1147 -74.6444 273° West 405 466 40,000  Level Boston Center
Fri 01:12:28 PM 43.1200 -74.7953 273° West 405 466 40,000  Level Boston Center
Fri 01:13:28 PM 43.1253 -74.9464 273° West 405 466 40,000  Level Boston Center
Fri 01:14:28 PM 43.1300 -75.0975 273° West 405 466 40,000  Level Boston Center
Fri 01:15:28 PM 43.1189 -75.2219 263° West 405 466 40,000  Level Boston Center
Fri 01:16:28 PM 43.1000 -75.3861 261° West 405 466 40,000  Level Boston Center
Fri 01:17:28 PM 43.0817 -75.5361 261° West 405 466 40,000  Level Boston Center
Fri 01:18:28 PM 43.0647 -75.6886 261° West 405 466 40,000  Level Boston Center
Fri 01:20:09 PM 43.0306 -75.9589 260° West 394 453 40,000  Level Cleveland Center
Fri 01:21:09 PM 43.0133 -76.1050 261° West 394 453 40,000  Level Cleveland Center
Fri 01:22:09 PM 42.9942 -76.2567 260° West 394 453 40,000  Level Cleveland Center
Fri 01:23:09 PM 42.9767 -76.4028 261° West 399 459 40,000  Level Cleveland Center
Fri 01:24:09 PM 42.9569 -76.5517 260° West 399 459 40,000  Level Cleveland Center
Fri 01:25:09 PM 42.9369 -76.7006 260° West 399 459 40,000  Level Cleveland Center
Fri 01:26:09 PM 42.9169 -76.8519 260° West 399 459 40,000  Level Cleveland Center
Fri 01:27:09 PM 42.8986 -76.9978 260° West 399 459 40,000  Level Cleveland Center
Fri 01:28:09 PM 42.8633 -77.1386 251° West 393 452 40,000  Level Cleveland Center
Fri 01:29:09 PM 42.8172 -77.2769 246° West 398 458 40,000  Level Cleveland Center
Fri 01:30:09 PM 42.7711 -77.4125 245° Southwest 398 458 40,000  Level Cleveland Center
Fri 01:31:09 PM 42.7247 -77.5533 246° West 403 464 40,000  Level Cleveland Center
Fri 01:32:09 PM 42.6803 -77.6853 245° Southwest 403 464 40,000  Level Cleveland Center
Fri 01:33:09 PM 42.6453 -77.7942 246° West 403 464 40,000  Level Cleveland Center
Fri 01:34:09 PM 42.5947 -77.9461 246° West 403 464 40,000  Level Cleveland Center
Fri 01:35:09 PM 42.5478 -78.0833 245° Southwest 403 464 40,000  Level Cleveland Center
Fri 01:36:09 PM 42.5025 -78.2147 245° Southwest 403 464 40,000  Level Cleveland Center
Fri 01:37:09 PM 42.4575 -78.3514 246° West 403 464 40,000  Level Cleveland Center
Fri 01:38:09 PM 42.4100 -78.4881 245° Southwest 403 464 40,000  Level Cleveland Center
Fri 01:39:09 PM 42.3644 -78.6244 246° West 403 464 40,000  Level Cleveland Center
Fri 01:40:09 PM 42.3186 -78.7581 245° Southwest 403 464 40,000  Level Cleveland Center
Fri 01:41:09 PM 42.2686 -78.8942 244° Southwest 403 464 40,000  Level Cleveland Center
Fri 01:42:09 PM 42.2164 -79.0411 244° Southwest 403 464 40,000  Level Cleveland Center
Fri 01:43:09 PM 42.1744 -79.1767 247° West 403 464 40,000  Level Cleveland Center
Fri 01:44:09 PM 42.1386 -79.3175 251° West 403 464 40,000  Level Cleveland Center
Fri 01:45:09 PM 42.1044 -79.4525 251° West 397 457 40,000  Level Cleveland Center
Fri 01:46:09 PM 42.0683 -79.5903 251° West 391 450 40,000  Level Cleveland Center
Fri 01:47:09 PM 42.0319 -79.7278 250° West 391 450 40,000  Level Cleveland Center
Fri 01:48:09 PM 41.9953 -79.8650 250° West 391 450 40,000  Level Cleveland Center
Fri 01:49:09 PM 41.9606 -79.9994 251° West 391 450 40,000  Level Cleveland Center
Fri 01:50:09 PM 41.9217 -80.1339 249° West 391 450 40,000  Level Cleveland Center
Fri 01:51:09 PM 41.8908 -80.2539 251° West 391 450 40,000  Level Cleveland Center
Fri 01:52:09 PM 41.8536 -80.3881 250° West 395 455 40,000  Level Cleveland Center
Fri 01:53:09 PM 41.8183 -80.5247 251° West 389 448 40,000  Level Cleveland Center
Fri 01:54:09 PM 41.7806 -80.6583 249° West 389 448 40,000  Level Cleveland Center
Fri 01:55:09 PM 41.7431 -80.8003 251° West 394 453 40,000  Level Cleveland Center
Fri 01:56:09 PM 41.7050 -80.9336 249° West 394 453 40,000  Level Cleveland Center
Fri 01:57:09 PM 41.6672 -81.0694 250° West 389 448 40,000  Level Cleveland Center
Fri 01:58:09 PM 41.6247 -81.2192 249° West 389 448 40,000  Level Cleveland Center
Fri 01:59:09 PM 41.5864 -81.3550 249° West 389 448 40,000  Level Cleveland Center
Fri 02:00:09 PM 41.5519 -81.4878 251° West 389 448 40,000  Level Cleveland Center
Fri 02:01:09 PM 41.5153 -81.6203 250° West 394 453 40,000  Level Cleveland Center
Fri 02:02:09 PM 41.4767 -81.7556 249° West 388 447 40,000  Level Cleveland Center
Fri 02:03:09 PM 41.4375 -81.8878 248° West 388 447 40,000  Level Cleveland Center
Fri 02:04:09 PM 41.3986 -82.0197 249° West 388 447 40,000  Level Cleveland Center
Fri 02:05:09 PM 41.3633 -82.1517 250° West 388 447 40,000  Level Cleveland Center
Fri 02:06:09 PM 41.3614 -82.2872 269° West 369 425 40,000  Level Cleveland Center
Fri 02:07:09 PM 41.3719 -82.4203 276° West 364 419 40,000  Level Cleveland Center
Fri 02:08:09 PM 41.3800 -82.5561 275° West 370 426 40,000  Level Cleveland Center
Fri 02:09:09 PM 41.3881 -82.6922 275° West 370 426 40,000  Level Cleveland Center
Fri 02:10:09 PM 41.3939 -82.8281 273° West 370 426 40,000  Level Cleveland Center
Fri 02:11:09 PM 41.4014 -82.9639 274° West 370 426 40,000  Level Cleveland Center
Fri 02:12:09 PM 41.4092 -83.0969 275° West 365 420 40,000  Level Cleveland Center
Fri 02:13:09 PM 41.4147 -83.2192 274° West 365 420 40,000  Level Cleveland Center
Fri 02:14:09 PM 41.4217 -83.3661 274° West 365 420 40,000  Level Cleveland Center
Fri 02:15:09 PM 41.4267 -83.4994 273° West 360 414 40,000  Level Cleveland Center
Fri 02:16:09 PM 41.4358 -83.6300 275° West 365 420 40,000  Level Cleveland Center
Fri 02:17:09 PM 41.4258 -83.7625 264° West 365 420 40,000 -400 Level Cleveland Center
Fri 02:18:09 PM 41.3725 -83.8817 239° Southwest 365 420 39,200 -850 Descending Cleveland Center
Fri 02:19:09 PM 41.3169 -83.9922 236° Southwest 365 420 38,300 -900 Descending Cleveland Center
Fri 02:20:09 PM 41.2594 -84.1053 236° Southwest 365 420 37,400 -918 Descending Cleveland Center
Fri 02:20:47 PM 41.2269 -84.1675 235° Southwest 365 420 36,800 -1,020 Descending Chicago Center
Fri 02:21:49 PM 41.2303 -84.2933 272° West 354 407 35,700 -2,371 Descending Chicago Center
Fri 02:22:51 PM 41.2525 -84.4189 283° West 349 402 31,900 -2,758 Descending Chicago Center
Fri 02:23:53 PM 41.2756 -84.5439 284° West 350 403 30,000 -919 Descending Chicago Center
Fri 02:24:55 PM 41.3008 -84.6922 283° West 343 395 30,000  Level Chicago Center
Fri 02:25:57 PM 41.3217 -84.8136 283° West 339 390 30,000  Level Chicago Center
Fri 02:26:59 PM 41.3431 -84.9350 283° West 337 388 30,000 -194 Level Chicago Center
Fri 02:28:01 PM 41.3650 -85.0628 283° West 350 403 29,600 -624 Descending Chicago Center
Fri 02:29:04 PM 41.3878 -85.1942 283° West 360 414 28,700 -1,056 Descending Chicago Center
Fri 02:30:06 PM 41.4089 -85.3239 282° West 358 412 27,400 -1,984 Descending Chicago Center
Fri 02:31:08 PM 41.4294 -85.4494 282° West 349 402 24,600 -1,935 Descending Chicago Center
Fri 02:32:10 PM 41.4508 -85.5769 283° West 346 398 23,400 -1,161 Descending Chicago Center
Fri 02:33:12 PM 41.4764 -85.7339 282° West 357 411 22,200 -1,065 Descending Chicago Center
Fri 02:34:14 PM 41.4981 -85.8617 283° West 353 406 21,200 -1,403 Descending Chicago Center
Fri 02:35:16 PM 41.5186 -85.9931 282° West 358 412 19,300 -2,081 Descending Chicago Center
Fri 02:36:18 PM 41.5261 -86.1222 274° West 352 405 16,900 -2,565 Descending Chicago Center
Fri 02:37:20 PM 41.5233 -86.2514 268° West 348 400 14,000 -2,710 Descending Chicago Center
Fri 02:38:22 PM 41.5222 -86.3789 269° West 344 396 11,300 -1,935 Descending Chicago Center
Fri 02:39:24 PM 41.5214 -86.5231 270° West 326 375 10,000 -629 Descending Chicago Center
Fri 02:40:26 PM 41.5206 -86.6297 269° West 288 331 10,000  Level Chicago Center
Fri 02:41:29 PM 41.5203 -86.7225 270° West 269 310 10,000  Level Chicago Center
Fri 02:42:31 PM 41.5200 -86.8228 270° West 270 311 10,000 -629 Level Chicago Center
Fri 02:43:33 PM 41.5189 -86.9425 269° West 271 312 8,700 -1,306 Descending Chicago Center
Fri 02:44:35 PM 41.5161 -87.0394 268° West 264 304 7,300 -1,286 Descending Chicago Center
Fri 02:45:39 PM 41.5167 -87.1500 270° West 255 293 6,000 -1,008 Descending Chicago TRACON
Fri 02:46:34 PM 41.5333 -87.2333 285° West 259 298 5,300 -887 Descending Chicago TRACON
Fri 02:47:34 PM 41.5500 -87.3167 285° West 256 295 4,300 -650 Descending Chicago TRACON
Fri 02:48:34 PM 41.5833 -87.4000 298° West 258 297 4,000 -200 Descending Chicago TRACON
Fri 02:49:34 PM 41.6167 -87.4833 298° West 239 275 3,900  Descending Chicago TRACON
Fri 02:50:34 PM 41.6500 -87.5500 304° West 213 245 4,000  Climbing Chicago TRACON
Fri 02:51:34 PM 41.6833 -87.6167 304° West 219 252 3,900 -80 Descending Chicago TRACON
Fri 02:51:49 PM 41.6917 -87.6200 343° North 227 261 3,900 -700 Level Chicago Center
Fri 02:52:34 PM 41.7333 -87.6667 320° Northwest 181 208 3,200 -1,086 Descending Chicago TRACON
Fri 02:53:34 PM 41.7667 -87.7000 323° Northwest 189 217 2,000 -750 Descending Chicago TRACON
Fri 02:54:34 PM 41.8167 -87.7000 360° North 173 199 1,700 -550 Descending Chicago TRACON
Fri 02:55:34 PM 41.8000 -87.7333 236° Southwest 119 137 900 -800 Descending Chicago TRACON
Fri 02:57:00 PM 41.7833 -87.7500 334° Northwest  Level FlightAware Approximate

Login

Don't have an account? Register now (free) for customized features, flight alerts, and more!